Time;durP1;ratioP1;P1;durP2;ratioP2;P2;SDS_P1;SDS_P2;PMS_P1;PMS_P2;Temp;Humidity;BMP_temperature;BMP_pressure;BME280_temperature;BME280_humidity;BME280_pressure;Samples;Min_cycle;Max_cycle;Signal;HPM_P1;HPM_P2
2023/08/12 00:02:15;;;;;;;23.33;15.98;;;24.60;62.70;;;;;;5005169;28;20064;-61
2023/08/12 00:04:46;;;;;;;27.15;17.08;;;24.60;63.60;;;;;;5004610;28;20057;-61
2023/08/12 00:07:13;;;;;;;23.55;15.80;;;24.50;64.30;;;;;;5004584;28;20053;-60
2023/08/12 00:09:40;;;;;;;27.08;18.13;;;24.40;64.90;;;;;;5004766;28;20053;-60
2023/08/12 00:12:08;;;;;;;24.55;17.70;;;24.30;65.50;;;;;;5004499;28;20397;-61
2023/08/12 00:14:35;;;;;;;26.33;16.83;;;24.20;66.20;;;;;;5004780;28;20076;-61
2023/08/12 00:17:02;;;;;;;25.95;17.90;;;24.10;66.40;;;;;;5006430;28;20063;-62
2023/08/12 00:19:29;;;;;;;26.65;18.13;;;24.10;66.90;;;;;;5004935;28;20058;-60
2023/08/12 00:21:58;;;;;;;28.33;18.23;;;24.10;67.50;;;;;;5005465;28;20064;-62
2023/08/12 00:24:25;;;;;;;24.95;17.15;;;24.00;68.00;;;;;;5004815;28;20053;-60
2023/08/12 00:26:52;;;;;;;24.15;19.42;;;24.00;68.20;;;;;;5003162;28;20057;-59
2023/08/12 00:29:20;;;;;;;25.23;18.83;;;23.90;68.70;;;;;;5004234;28;20062;-60
2023/08/12 00:31:47;;;;;;;27.40;19.35;;;23.90;69.10;;;;;;5005623;28;20053;-60
2023/08/12 00:34:14;;;;;;;28.05;19.10;;;23.80;69.20;;;;;;5004035;28;20488;-61
2023/08/12 00:36:41;;;;;;;26.00;18.58;;;23.80;69.60;;;;;;5004606;28;20052;-60
2023/08/12 00:39:10;;;;;;;25.60;18.98;;;23.80;69.90;;;;;;5004948;28;20064;-60
2023/08/12 00:41:37;;;;;;;26.83;19.75;;;23.80;70.30;;;;;;5003156;28;20061;-60
2023/08/12 00:44:05;;;;;;;21.33;15.55;;;23.80;70.40;;;;;;5004300;28;20064;-61
2023/08/12 00:46:33;;;;;;;27.75;20.13;;;23.70;70.40;;;;;;5003983;28;20065;-59
2023/08/12 00:49:00;;;;;;;29.77;20.10;;;23.70;70.80;;;;;;5004293;28;20061;-60
2023/08/12 00:51:28;;;;;;;19.27;15.35;;;23.70;71.00;;;;;;5005320;28;20469;-60
2023/08/12 00:53:57;;;;;;;22.65;16.67;;;23.70;71.10;;;;;;5004566;28;20088;-60
2023/08/12 00:56:27;;;;;;;50.75;16.95;;;23.70;71.10;;;;;;5003687;28;20513;-60
2023/08/12 00:58:54;;;;;;;20.17;16.73;;;23.70;71.20;;;;;;5003707;28;20045;-59
2023/08/12 01:01:22;;;;;;;23.15;16.17;;;23.70;71.20;;;;;;5004578;28;20493;-60
2023/08/12 01:03:49;;;;;;;25.20;16.23;;;23.70;71.20;;;;;;5023263;23;20133;-86
2023/08/12 01:06:16;;;;;;;20.88;15.27;;;23.70;71.20;;;;;;5024143;28;20400;-86
2023/08/12 01:08:44;;;;;;;14.52;11.68;;;23.70;71.00;;;;;;5023938;28;20061;-86
2023/08/12 01:11:18;;;;;;;18.63;13.82;;;23.70;70.90;;;;;;5023224;28;20068;-86
2023/08/12 01:13:53;;;;;;;15.95;11.63;;;23.70;71.10;;;;;;5022367;28;20057;-86
2023/08/12 01:16:23;;;;;;;15.38;11.02;;;23.70;70.90;;;;;;5029759;28;20071;-86
2023/08/12 01:18:51;;;;;;;14.07;10.93;;;23.70;70.90;;;;;;5021731;28;20045;-86
2023/08/12 01:21:21;;;;;;;18.40;13.60;;;23.70;71.40;;;;;;5023423;28;20049;-85
2023/08/12 01:23:51;;;;;;;16.45;11.27;;;23.70;70.60;;;;;;5022927;28;20061;-87
2023/08/12 01:26:18;;;;;;;14.93;11.27;;;23.70;70.40;;;;;;5022279;28;20059;-86
2023/08/12 01:28:45;;;;;;;17.52;12.02;;;23.70;70.30;;;;;;5022250;28;20053;-86
2023/08/12 01:31:19;;;;;;;15.75;10.10;;;23.80;70.10;;;;;;5023424;28;20408;-86
2023/08/12 01:33:53;;;;;;;14.38;11.48;;;23.80;70.00;;;;;;5022568;28;20161;-86
2023/08/12 01:36:21;;;;;;;;;;;23.80;69.80;;;;;;5023177;28;20056;-86
2023/08/12 01:38:52;;;;;;;9.48;7.32;;;23.90;68.90;;;;;;5024137;28;19951;-86
2023/08/12 01:41:20;;;;;;;8.90;6.80;;;23.80;68.80;;;;;;5020653;28;20160;-85
2023/08/12 01:43:47;;;;;;;9.68;6.53;;;23.80;68.70;;;;;;5022406;28;20507;-86
2023/08/12 01:46:15;;;;;;;8.10;6.30;;;23.80;68.70;;;;;;5022429;28;20049;-86
2023/08/12 01:48:42;;;;;;;7.38;6.05;;;23.80;68.70;;;;;;5022421;28;20143;-85
2023/08/12 01:51:09;;;;;;;9.10;6.07;;;23.80;68.70;;;;;;5021932;28;20053;-86
2023/08/12 01:53:36;;;;;;;8.68;5.60;;;23.90;68.70;;;;;;5022740;28;20053;-85
2023/08/12 01:56:05;;;;;;;8.52;5.45;;;23.80;68.50;;;;;;5022081;28;20052;-86
2023/08/12 01:58:32;;;;;;;8.65;5.60;;;23.80;68.30;;;;;;5021715;28;20086;-86
2023/08/12 02:01:00;;;;;;;10.30;5.28;;;23.90;68.10;;;;;;5023400;28;20060;-85
2023/08/12 02:03:27;;;;;;;7.30;5.60;;;23.90;68.00;;;;;;5023628;28;20417;-86
2023/08/12 02:05:54;;;;;;;6.88;5.05;;;23.90;67.70;;;;;;5021411;28;20045;-88
2023/08/12 02:08:22;;;;;;;9.32;6.15;;;23.90;67.60;;;;;;5021960;28;20523;-85
2023/08/12 02:10:49;;;;;;;8.35;5.15;;;23.90;67.40;;;;;;5022614;28;20045;-85
2023/08/12 02:13:18;;;;;;;7.53;4.60;;;23.90;67.20;;;;;;5021120;28;20056;-86
2023/08/12 02:15:46;;;;;;;6.85;5.35;;;23.90;67.10;;;;;;5020337;28;20049;-86
2023/08/12 02:18:13;;;;;;;7.88;5.20;;;23.90;67.00;;;;;;5022012;28;20516;-85
2023/08/12 02:20:41;;;;;;;8.27;5.07;;;23.90;66.90;;;;;;5022621;28;20057;-85
2023/08/12 02:23:08;;;;;;;6.85;4.88;;;23.90;66.80;;;;;;5022224;28;20146;-85
2023/08/12 02:25:36;;;;;;;5.85;4.53;;;23.90;66.60;;;;;;5021876;28;20056;-85
2023/08/12 02:28:03;;;;;;;5.40;4.35;;;23.90;66.60;;;;;;5020951;28;20167;-85
2023/08/12 02:30:33;;;;;;;6.68;4.65;;;23.90;66.60;;;;;;5023226;28;20377;-86
2023/08/12 02:33:00;;;;;;;8.82;4.47;;;23.90;66.50;;;;;;5022012;28;20633;-85
2023/08/12 02:35:27;;;;;;;5.95;4.68;;;23.90;66.30;;;;;;5020853;28;20076;-87
2023/08/12 02:37:55;;;;;;;7.53;4.40;;;23.90;66.30;;;;;;5021644;28;20050;-85
2023/08/12 02:40:22;;;;;;;9.70;5.40;;;23.90;66.20;;;;;;5021853;28;20056;-86
2023/08/12 02:42:49;;;;;;;7.82;5.28;;;23.90;66.10;;;;;;5020547;28;20493;-85
2023/08/12 02:45:16;;;;;;;6.68;4.95;;;23.90;66.10;;;;;;5022025;28;21156;-85
2023/08/12 02:47:45;;;;;;;6.97;4.72;;;23.90;66.00;;;;;;5022096;28;20538;-85
2023/08/12 02:50:12;;;;;;;8.05;5.70;;;23.90;65.90;;;;;;5021596;28;20053;-86
2023/08/12 02:52:40;;;;;;;7.38;5.57;;;23.90;65.90;;;;;;5020643;28;20049;-86
2023/08/12 02:55:08;;;;;;;7.05;5.28;;;23.90;65.80;;;;;;5022770;28;20045;-86
2023/08/12 02:57:35;;;;;;;7.43;5.60;;;23.80;65.80;;;;;;5019381;28;20064;-84
2023/08/12 03:00:03;;;;;;;8.10;5.43;;;23.90;65.80;;;;;;5021705;28;20053;-85
2023/08/12 03:02:31;;;;;;;6.78;5.28;;;23.80;65.80;;;;;;5021514;28;20053;-86
2023/08/12 03:05:00;;;;;;;8.45;5.45;;;23.80;65.70;;;;;;5021840;28;20056;-85
2023/08/12 03:07:27;;;;;;;7.25;4.82;;;23.80;65.80;;;;;;5022029;28;20052;-85
2023/08/12 03:09:55;;;;;;;7.63;4.95;;;23.80;65.70;;;;;;5021861;28;20466;-85
2023/08/12 03:12:22;;;;;;;8.80;5.80;;;23.80;65.80;;;;;;5018954;28;20053;-85
2023/08/12 03:14:49;;;;;;;7.05;5.15;;;23.80;65.80;;;;;;5021997;28;20060;-86
2023/08/12 03:17:17;;;;;;;6.65;4.65;;;23.80;65.70;;;;;;5021638;28;20057;-85
2023/08/12 03:19:44;;;;;;;8.95;5.05;;;23.80;65.70;;;;;;5021537;28;20137;-84
2023/08/12 03:22:13;;;;;;;5.63;4.55;;;23.80;65.70;;;;;;5019986;28;20045;-86
2023/08/12 03:24:40;;;;;;;8.02;5.38;;;23.80;65.70;;;;;;5020872;28;20057;-85
2023/08/12 03:27:07;;;;;;;8.63;4.60;;;23.80;65.60;;;;;;5020759;28;20053;-85
2023/08/12 03:29:35;;;;;;;7.85;4.93;;;23.80;65.60;;;;;;5025990;28;20057;-84
2023/08/12 03:32:02;;;;;;;6.93;3.92;;;23.80;65.60;;;;;;5025624;28;20049;-85
2023/08/12 03:34:30;;;;;;;6.68;4.13;;;23.70;65.50;;;;;;5025974;28;20049;-85
2023/08/12 03:36:57;;;;;;;5.43;4.10;;;23.70;65.50;;;;;;5024411;28;20500;-86
2023/08/12 03:39:26;;;;;;;4.97;4.00;;;23.70;65.40;;;;;;5026296;28;20496;-86
2023/08/12 03:41:53;;;;;;;7.18;5.20;;;23.70;65.40;;;;;;5025037;28;20045;-86
2023/08/12 03:44:21;;;;;;;7.70;4.40;;;23.70;65.40;;;;;;5024760;28;20066;-86
2023/08/12 03:46:48;;;;;;;7.40;4.35;;;23.70;65.40;;;;;;5026581;28;20623;-85
2023/08/12 03:49:15;;;;;;;4.88;4.38;;;23.70;65.40;;;;;;5024759;28;20057;-85
2023/08/12 03:51:43;;;;;;;7.95;4.80;;;23.70;65.40;;;;;;5025254;28;20049;-85
2023/08/12 03:54:10;;;;;;;5.88;4.10;;;23.70;65.40;;;;;;5024673;28;20057;-86
2023/08/12 03:56:39;;;;;;;7.43;4.57;;;23.70;65.50;;;;;;5024007;28;20072;-85
2023/08/12 03:59:06;;;;;;;6.95;4.65;;;23.60;65.40;;;;;;5025213;28;20056;-85
2023/08/12 04:01:34;;;;;;;7.93;4.07;;;23.60;65.40;;;;;;5022984;28;20869;-87
2023/08/12 04:04:01;;;;;;;4.75;3.67;;;23.60;65.30;;;;;;5025385;28;20072;-87
2023/08/12 04:06:28;;;;;;;5.72;3.92;;;23.60;65.40;;;;;;5024151;28;20068;-86
2023/08/12 04:08:55;;;;;;;5.03;3.60;;;23.60;65.40;;;;;;5024589;28;20052;-85
2023/08/12 04:11:23;;;;;;;5.10;3.75;;;23.60;65.40;;;;;;5023188;28;20058;-86
2023/08/12 04:13:52;;;;;;;5.20;3.80;;;23.60;65.50;;;;;;5023867;28;20053;-88
2023/08/12 04:16:19;;;;;;;5.65;3.90;;;23.60;65.40;;;;;;5025637;28;20523;-85
2023/08/12 04:18:46;;;;;;;6.88;3.95;;;23.60;65.40;;;;;;5025536;28;20485;-85
2023/08/12 04:21:14;;;;;;;4.63;3.67;;;23.60;65.40;;;;;;5024268;28;20952;-86
2023/08/12 04:23:41;;;;;;;5.45;4.07;;;23.60;65.40;;;;;;5024141;28;20058;-87
2023/08/12 04:26:10;;;;;;;6.60;3.97;;;23.50;65.30;;;;;;5023930;28;20779;-88
2023/08/12 04:28:38;;;;;;;7.93;4.85;;;23.50;65.30;;;;;;5023454;28;20061;-88
2023/08/12 04:31:08;;;;;;;6.35;4.10;;;23.50;65.30;;;;;;5023992;28;20057;-88
2023/08/12 04:33:36;;;;;;;7.45;4.40;;;23.50;65.40;;;;;;5022921;28;20064;-88
2023/08/12 04:36:03;;;;;;;5.28;3.92;;;23.50;65.30;;;;;;5025186;28;20587;-87
2023/08/12 04:38:31;;;;;;;6.35;4.47;;;23.50;65.40;;;;;;5024120;28;20062;-88
2023/08/12 04:40:58;;;;;;;6.38;4.22;;;23.40;65.40;;;;;;5024135;28;20061;-88
2023/08/12 04:43:27;;;;;;;6.63;4.03;;;23.40;65.70;;;;;;5023339;28;20461;-88
2023/08/12 04:45:54;;;;;;;5.63;4.15;;;23.40;65.50;;;;;;5023298;28;20053;-88
2023/08/12 04:48:23;;;;;;;6.30;4.18;;;23.40;65.50;;;;;;5023858;28;20088;-90
2023/08/12 04:50:50;;;;;;;4.53;3.78;;;23.40;65.60;;;;;;5023832;28;20057;-91
2023/08/12 04:53:18;;;;;;;9.20;3.53;;;23.40;65.60;;;;;;5023632;28;20476;-88
2023/08/12 04:55:45;;;;;;;4.88;3.38;;;23.40;65.60;;;;;;5030485;28;20523;-87
2023/08/12 04:58:12;;;;;;;5.68;3.60;;;23.40;65.60;;;;;;5021955;28;20068;-87
2023/08/12 05:00:40;;;;;;;6.45;3.80;;;23.40;65.60;;;;;;5023172;28;20053;-88
2023/08/12 05:03:07;;;;;;;7.38;4.22;;;23.40;65.70;;;;;;5024135;28;20056;-87
2023/08/12 05:05:38;;;;;;;5.80;3.35;;;23.30;65.70;;;;;;5023492;28;20064;-87
2023/08/12 05:08:06;;;;;;;4.63;3.60;;;23.30;65.80;;;;;;5019456;28;20051;-86
2023/08/12 05:10:34;;;;;;;5.25;4.00;;;23.30;65.60;;;;;;5024061;28;20385;-87
2023/08/12 05:13:02;;;;;;;4.43;3.70;;;23.30;65.70;;;;;;5022557;28;20060;-87
2023/08/12 05:21:19;;;;;;;5.40;4.43;;;23.30;65.70;;;;;;5025827;28;20041;-56
2023/08/12 05:23:46;;;;;;;6.88;4.63;;;23.30;66.00;;;;;;5025822;28;20044;-57
2023/08/12 05:26:14;;;;;;;5.95;4.72;;;23.30;66.20;;;;;;5024864;28;20061;-58
2023/08/12 05:28:41;;;;;;;6.53;4.57;;;23.30;66.60;;;;;;5024256;28;21143;-57
2023/08/12 05:31:08;;;;;;;6.28;4.50;;;23.30;66.90;;;;;;5022061;28;20061;-57
2023/08/12 05:33:36;;;;;;;6.82;4.90;;;23.30;67.20;;;;;;5025051;28;20046;-57
2023/08/12 05:36:04;;;;;;;5.20;4.18;;;23.30;67.60;;;;;;5024301;28;20080;-56
2023/08/12 05:38:34;;;;;;;4.97;4.18;;;23.30;67.70;;;;;;5025320;28;20053;-57
2023/08/12 05:41:01;;;;;;;5.00;4.28;;;23.40;68.10;;;;;;5024839;28;20061;-60
2023/08/12 05:43:28;;;;;;;7.03;4.90;;;23.40;68.10;;;;;;5024046;28;20049;-58
2023/08/12 05:45:55;;;;;;;6.88;5.40;;;23.40;68.50;;;;;;5024627;28;20053;-56
2023/08/12 05:48:23;;;;;;;7.60;5.15;;;23.50;68.80;;;;;;5026255;28;20061;-56
2023/08/12 05:50:50;;;;;;;7.13;5.05;;;23.50;69.00;;;;;;5023589;28;20053;-56
2023/08/12 05:53:17;;;;;;;5.03;4.53;;;23.50;68.90;;;;;;5024169;28;20049;-60
2023/08/12 05:55:46;;;;;;;6.25;5.03;;;23.60;69.10;;;;;;5024293;28;20512;-59
2023/08/12 05:58:13;;;;;;;5.25;4.35;;;23.60;69.30;;;;;;5023538;28;20053;-57
2023/08/12 06:00:40;;;;;;;4.15;3.55;;;23.60;69.40;;;;;;5024176;28;20056;-56
2023/08/12 06:03:08;;;;;;;8.43;4.60;;;23.70;69.60;;;;;;5024212;28;21362;-56
2023/08/12 06:05:35;;;;;;;4.40;3.95;;;23.70;69.80;;;;;;5024062;28;20049;-56
2023/08/12 06:08:02;;;;;;;7.72;4.25;;;23.80;70.00;;;;;;5023166;28;20069;-57
2023/08/12 06:10:29;;;;;;;5.03;4.13;;;23.80;70.00;;;;;;5025171;28;20064;-58
2023/08/12 06:12:58;;;;;;;6.38;3.60;;;23.90;69.80;;;;;;5022827;28;20045;-57
2023/08/12 06:15:25;;;;;;;5.97;3.78;;;23.90;69.60;;;;;;5023885;28;20058;-58
2023/08/12 06:17:52;;;;;;;6.55;3.92;;;24.00;69.40;;;;;;5025164;28;20053;-57
2023/08/12 06:20:20;;;;;;;7.65;4.03;;;24.00;69.10;;;;;;5024737;28;20493;-58
2023/08/12 06:22:47;;;;;;;5.75;2.92;;;24.00;68.80;;;;;;5024042;28;20049;-58
2023/08/12 06:25:14;;;;;;;3.67;2.50;;;24.00;68.40;;;;;;5023001;28;20053;-58
2023/08/12 06:27:42;;;;;;;8.95;2.53;;;24.00;67.70;;;;;;5021924;28;20053;-57
2023/08/12 06:30:12;;;;;;;4.07;2.13;;;24.00;66.90;;;;;;5023873;28;20053;-57
2023/08/12 06:32:39;;;;;;;2.95;1.90;;;24.00;66.50;;;;;;5023170;28;20056;-56
2023/08/12 06:35:07;;;;;;;4.97;2.50;;;23.90;66.20;;;;;;5025182;28;20053;-59
2023/08/12 06:37:35;;;;;;;3.10;2.03;;;23.90;66.10;;;;;;5023392;28;20501;-57
2023/08/12 06:40:02;;;;;;;5.00;2.60;;;23.80;66.00;;;;;;5023859;28;20053;-56
2023/08/12 06:42:30;;;;;;;3.67;2.13;;;23.80;66.00;;;;;;5022458;28;20057;-57
2023/08/12 06:44:59;;;;;;;4.20;2.10;;;23.80;66.10;;;;;;5023366;28;20057;-56
2023/08/12 06:47:29;;;;;;;3.20;2.22;;;23.70;66.00;;;;;;5024064;28;20488;-57
2023/08/12 06:49:56;;;;;;;4.82;2.33;;;23.70;66.60;;;;;;5023301;28;20075;-56
2023/08/12 06:52:24;;;;;;;3.10;2.10;;;23.70;66.00;;;;;;5024333;28;20060;-56
2023/08/12 06:54:51;;;;;;;3.10;2.38;;;23.70;66.10;;;;;;5022376;28;20397;-59
2023/08/12 06:57:18;;;;;;;3.90;2.30;;;23.70;66.90;;;;;;5021714;28;20053;-59
2023/08/12 06:59:45;;;;;;;3.35;2.05;;;23.70;66.50;;;;;;5023729;28;20056;-57
2023/08/12 07:02:13;;;;;;;4.82;2.00;;;23.70;66.60;;;;;;5022479;28;20489;-57
2023/08/12 07:04:41;;;;;;;3.90;2.10;;;23.70;66.70;;;;;;5024303;28;20516;-57
2023/08/12 07:07:08;;;;;;;2.67;1.83;;;23.70;66.90;;;;;;5022272;28;20512;-57
2023/08/12 07:09:36;;;;;;;5.25;2.10;;;23.70;66.90;;;;;;5024959;28;20045;-57
2023/08/12 07:12:03;;;;;;;3.30;2.10;;;23.70;66.90;;;;;;5022225;28;20049;-57
2023/08/12 07:14:31;;;;;;;4.15;2.08;;;23.70;67.10;;;;;;5022571;28;20049;-56
2023/08/12 07:16:58;;;;;;;2.42;1.88;;;23.70;67.20;;;;;;5023882;28;20053;-57
2023/08/12 07:19:25;;;;;;;3.78;2.10;;;23.70;67.20;;;;;;5022997;28;20053;-56
2023/08/12 07:21:54;;;;;;;2.72;1.73;;;23.80;67.30;;;;;;5021824;28;20512;-58
2023/08/12 07:24:21;;;;;;;2.65;1.92;;;23.80;67.30;;;;;;5023986;28;20049;-57
2023/08/12 07:26:48;;;;;;;4.00;2.17;;;23.80;67.20;;;;;;5022545;28;20071;-58
2023/08/12 07:29:15;;;;;;;2.10;1.73;;;23.80;67.20;;;;;;5024281;28;20056;-56
2023/08/12 07:31:43;;;;;;;4.63;1.80;;;23.80;67.20;;;;;;5022788;28;20401;-56
2023/08/12 07:34:13;;;;;;;3.70;2.13;;;23.90;67.30;;;;;;5022293;28;20268;-58
2023/08/12 07:36:40;;;;;;;5.63;2.13;;;23.90;67.20;;;;;;5023293;28;20060;-56
2023/08/12 07:39:09;;;;;;;6.32;2.13;;;23.90;67.30;;;;;;5022308;28;20053;-57
2023/08/12 07:41:37;;;;;;;3.15;2.15;;;23.90;67.00;;;;;;5022769;28;20056;-57
2023/08/12 07:44:05;;;;;;;3.22;1.90;;;24.00;66.90;;;;;;5023276;28;20412;-57
2023/08/12 07:46:32;;;;;;;5.45;2.20;;;24.00;66.80;;;;;;5022429;28;20065;-63
2023/08/12 07:48:59;;;;;;;4.32;2.60;;;24.00;66.80;;;;;;5023448;28;20515;-63
2023/08/12 07:51:27;;;;;;;6.18;2.33;;;24.00;66.80;;;;;;5023937;28;20054;-64
2023/08/12 07:53:54;;;;;;;3.47;2.28;;;24.00;66.90;;;;;;5023977;28;20056;-63
2023/08/12 07:56:22;;;;;;;3.65;2.38;;;24.10;67.00;;;;;;5021663;28;20061;-63
2023/08/12 07:58:50;;;;;;;3.55;2.20;;;24.10;67.20;;;;;;5020789;28;20076;-62
2023/08/12 08:01:17;;;;;;;3.88;2.30;;;24.10;67.30;;;;;;5021690;28;20045;-63
2023/08/12 08:03:44;;;;;;;4.25;2.00;;;24.10;67.40;;;;;;5023398;28;20054;-63
2023/08/12 08:06:11;;;;;;;5.07;2.17;;;24.10;67.60;;;;;;5022329;28;20051;-62
2023/08/12 08:08:39;;;;;;;3.35;2.13;;;24.20;67.70;;;;;;5023129;28;20056;-63
2023/08/12 08:11:07;;;;;;;4.80;2.58;;;24.20;67.70;;;;;;5022472;28;21148;-62
2023/08/12 08:13:36;;;;;;;2.75;2.10;;;24.20;68.00;;;;;;5021654;28;20049;-61
2023/08/12 08:16:03;;;;;;;3.05;2.10;;;24.20;68.30;;;;;;5026315;28;20488;-63
2023/08/12 08:18:30;;;;;;;5.60;2.35;;;24.30;68.40;;;;;;5024084;28;20076;-62
2023/08/12 08:20:57;;;;;;;4.90;2.25;;;24.30;68.40;;;;;;5024294;28;20505;-63
2023/08/12 08:23:25;;;;;;;4.43;2.50;;;24.40;68.40;;;;;;5024299;28;20493;-62
2023/08/12 08:25:52;;;;;;;3.15;2.00;;;24.40;68.60;;;;;;5024238;28;20053;-61
2023/08/12 08:28:19;;;;;;;4.07;2.10;;;24.40;68.80;;;;;;5021503;28;20412;-63
2023/08/12 08:30:48;;;;;;;3.35;2.03;;;24.50;69.00;;;;;;5025614;28;20497;-64
2023/08/12 08:33:15;;;;;;;4.03;2.42;;;24.50;68.90;;;;;;5026856;28;20056;-63
2023/08/12 08:35:42;;;;;;;2.08;1.85;;;24.60;68.80;;;;;;5024562;28;20404;-63
2023/08/12 08:38:10;;;;;;;3.28;1.90;;;24.70;68.60;;;;;;5024819;28;20056;-62
2023/08/12 08:40:37;;;;;;;6.82;2.22;;;24.70;67.80;;;;;;5025030;28;20049;-62
2023/08/12 08:43:08;;;;;;;2.63;1.50;;;24.70;67.40;;;;;;5022023;28;20060;-62
2023/08/12 08:45:35;;;;;;;3.58;2.03;;;24.80;67.10;;;;;;5025851;28;20057;-62
2023/08/12 08:48:07;;;;;;;4.22;2.20;;;24.70;66.50;;;;;;5025758;28;20079;-63
2023/08/12 08:50:35;;;;;;;2.67;1.83;;;24.80;66.10;;;;;;5026032;28;20056;-62
2023/08/12 08:53:05;;;;;;;2.85;2.15;;;24.80;65.90;;;;;;5025176;28;20497;-63
2023/08/12 08:55:33;;;;;;;3.65;2.00;;;24.80;65.60;;;;;;5024703;28;20080;-63
2023/08/12 08:58:00;;;;;;;3.03;1.92;;;24.80;65.40;;;;;;5024740;28;20073;-63
2023/08/12 09:00:29;;;;;;;3.13;2.05;;;24.80;65.20;;;;;;5025732;28;20413;-63
2023/08/12 09:02:59;;;;;;;3.28;2.20;;;24.90;65.10;;;;;;5024873;28;20049;-63
2023/08/12 09:05:29;;;;;;;4.75;2.13;;;24.80;64.70;;;;;;5024625;28;20053;-63
2023/08/12 09:07:59;;;;;;;3.88;2.20;;;24.80;64.30;;;;;;5024521;28;20064;-62
2023/08/12 09:10:28;;;;;;;8.40;1.88;;;24.80;63.80;;;;;;5024804;28;20058;-63
2023/08/12 09:12:56;;;;;;;3.08;1.95;;;24.80;63.80;;;;;;5022841;28;20050;-65
2023/08/12 09:15:24;;;;;;;3.67;1.88;;;24.80;64.00;;;;;;5022451;28;20053;-63
2023/08/12 09:17:51;;;;;;;3.47;2.10;;;24.80;64.10;;;;;;5023236;28;20056;-63
2023/08/12 09:20:18;;;;;;;5.60;2.60;;;24.80;64.20;;;;;;5023068;28;20068;-63
2023/08/12 09:22:55;;;;;;;3.47;2.08;;;24.80;65.10;;;;;;5022456;28;20049;-64
2023/08/12 09:25:23;;;;;;;4.90;2.10;;;24.80;64.50;;;;;;5026942;28;20931;-63
2023/08/12 09:27:50;;;;;;;4.05;2.50;;;24.90;64.50;;;;;;5023491;28;20060;-64
2023/08/12 09:30:18;;;;;;;5.72;2.53;;;24.90;64.30;;;;;;5024686;28;20444;-64
2023/08/12 09:33:00;;;;;;;4.70;2.67;;;24.90;64.00;;;;;;5022969;28;20516;-65
2023/08/12 09:35:37;;;;;;;2.05;1.75;;;24.90;64.10;;;;;;5023461;28;20052;-64
2023/08/12 09:38:07;;;;;;;2.85;2.05;;;25.00;64.30;;;;;;5022458;28;20046;-63
2023/08/12 09:40:36;;;;;;;3.88;1.90;;;25.00;64.40;;;;;;5024120;28;20064;-63
2023/08/12 09:43:04;;;;;;;2.42;2.10;;;25.00;64.40;;;;;;5023617;28;20053;-64
2023/08/12 09:45:32;;;;;;;3.05;2.00;;;25.00;64.40;;;;;;5024756;28;20407;-64
2023/08/12 09:47:59;;;;;;;2.95;2.03;;;25.00;64.50;;;;;;5023605;28;20508;-64
2023/08/12 09:50:27;;;;;;;2.95;1.90;;;25.10;64.70;;;;;;5024493;28;20061;-64
2023/08/12 09:52:55;;;;;;;3.17;1.95;;;25.10;64.40;;;;;;5020806;28;20053;-64
2023/08/12 09:55:26;;;;;;;2.80;1.98;;;25.10;64.40;;;;;;5023530;28;20917;-64
2023/08/12 09:57:54;;;;;;;2.83;1.85;;;25.20;64.60;;;;;;5023584;28;20056;-66
2023/08/12 10:00:23;;;;;;;3.08;1.98;;;25.20;64.60;;;;;;5024539;28;20045;-64
2023/08/12 10:02:52;;;;;;;2.92;1.98;;;25.30;64.50;;;;;;5026053;28;20057;-64
2023/08/12 10:05:23;;;;;;;4.57;2.40;;;25.30;64.20;;;;;;5024184;28;20428;-64
2023/08/12 10:07:50;;;;;;;3.83;2.30;;;25.30;64.10;;;;;;5023087;28;20424;-64
2023/08/12 10:10:17;;;;;;;4.72;2.05;;;25.40;64.00;;;;;;5023202;28;20064;-63
2023/08/12 10:12:47;;;;;;;3.15;1.75;;;25.40;64.00;;;;;;5020546;28;20413;-64
2023/08/12 10:15:15;;;;;;;3.63;2.03;;;25.40;64.00;;;;;;5023186;28;20390;-64
2023/08/12 10:17:43;;;;;;;2.42;2.05;;;25.50;63.70;;;;;;5021714;28;20049;-63
2023/08/12 10:20:14;;;;;;;4.20;2.08;;;25.50;63.70;;;;;;5022958;28;20053;-63
2023/08/12 10:22:44;;;;;;;7.10;2.15;;;25.50;63.50;;;;;;5021355;28;20045;-64
2023/08/12 10:25:15;;;;;;;2.55;1.77;;;25.60;63.50;;;;;;5024123;28;20167;-64
2023/08/12 10:27:42;;;;;;;4.10;1.80;;;25.60;63.70;;;;;;5022650;28;20125;-64
2023/08/12 10:30:13;;;;;;;3.85;2.22;;;25.60;63.70;;;;;;5024495;28;20061;-64
2023/08/12 10:32:41;;;;;;;2.80;1.90;;;25.60;63.60;;;;;;5024829;28;20057;-64
2023/08/12 10:35:09;;;;;;;8.82;2.00;;;25.70;63.30;;;;;;5022078;28;20401;-62
2023/08/12 10:37:37;;;;;;;1.90;1.73;;;25.80;63.20;;;;;;5021288;28;21093;-64
2023/08/12 10:40:07;;;;;;;2.70;1.65;;;25.80;63.10;;;;;;5024109;28;20053;-64
2023/08/12 10:42:44;;;;;;;2.47;1.63;;;25.80;62.60;;;;;;5019480;28;20057;-64
2023/08/12 10:45:18;;;;;;;3.17;1.63;;;25.80;61.90;;;;;;5020900;28;20057;-64
2023/08/12 10:48:09;;;;;;;3.60;1.80;;;25.90;62.10;;;;;;5023464;28;20053;-64
2023/08/12 10:50:37;;;;;;;5.47;1.83;;;26.00;61.40;;;;;;5023977;28;20064;-64
2023/08/12 10:53:29;;;;;;;3.47;1.77;;;26.00;61.20;;;;;;5022985;28;20421;-64
2023/08/12 10:55:58;;;;;;;8.10;1.73;;;26.00;61.20;;;;;;5023563;28;20045;-64
2023/08/12 10:58:29;;;;;;;2.85;1.20;;;26.00;61.10;;;;;;5022258;28;20076;-64
2023/08/12 11:00:59;;;;;;;3.47;1.80;;;26.00;61.10;;;;;;5023745;28;20053;-64
2023/08/12 11:03:26;;;;;;;3.10;1.65;;;26.00;61.30;;;;;;5023817;28;20057;-64
2023/08/12 11:05:56;;;;;;;3.97;1.70;;;25.90;61.40;;;;;;5024523;28;20057;-63
2023/08/12 11:08:29;;;;;;;2.58;1.58;;;25.90;61.60;;;;;;5023129;28;20062;-64
2023/08/12 11:10:58;;;;;;;2.42;1.20;;;25.90;61.60;;;;;;5023954;28;20502;-63
2023/08/12 11:13:28;;;;;;;2.90;1.60;;;26.00;61.70;;;;;;5021262;28;20060;-63
2023/08/12 11:16:08;;;;;;;2.67;1.38;;;26.00;61.30;;;;;;5023980;28;20046;-61
2023/08/12 11:18:35;;;;;;;3.30;1.85;;;26.00;61.40;;;;;;5019994;28;20049;-60
2023/08/12 11:21:04;;;;;;;3.70;1.67;;;26.00;61.60;;;;;;5019990;28;20053;-63
2023/08/12 11:23:31;;;;;;;2.97;2.30;;;26.10;61.70;;;;;;5023276;28;20053;-61
2023/08/12 11:25:59;;;;;;;3.90;2.80;;;26.10;61.50;;;;;;5022642;28;20045;-62
2023/08/12 11:28:26;;;;;;;5.15;2.00;;;26.10;60.50;;;;;;5021480;28;20046;-60
2023/08/12 11:30:54;;;;;;;1.77;1.50;;;26.10;60.30;;;;;;5023133;28;20056;-62
2023/08/12 11:33:22;;;;;;;2.05;1.42;;;26.10;60.30;;;;;;5022621;28;20394;-61
2023/08/12 11:35:49;;;;;;;2.40;1.52;;;26.10;60.20;;;;;;5021261;28;20417;-59
2023/08/12 11:38:17;;;;;;;2.40;1.67;;;26.10;59.80;;;;;;5023007;28;20049;-61
2023/08/12 11:40:44;;;;;;;2.50;1.30;;;26.10;59.70;;;;;;5021232;28;20056;-62
2023/08/12 11:43:12;;;;;;;2.55;1.65;;;26.10;59.80;;;;;;5020778;28;20421;-61
2023/08/12 11:45:42;;;;;;;1.98;1.50;;;26.10;60.00;;;;;;5023988;28;20497;-61
2023/08/12 11:48:10;;;;;;;2.33;1.30;;;26.10;60.10;;;;;;5021846;28;20059;-61
2023/08/12 11:50:40;;;;;;;1.67;1.38;;;26.10;60.00;;;;;;5026007;28;20429;-61
2023/08/12 11:53:07;;;;;;;1.50;1.35;;;26.10;60.30;;;;;;5023526;28;20418;-61
2023/08/12 11:55:35;;;;;;;2.58;1.30;;;26.10;60.00;;;;;;5027799;28;20053;-61
2023/08/12 11:58:03;;;;;;;1.27;1.17;;;26.20;59.80;;;;;;5026243;28;20076;-60
2023/08/12 12:00:35;;;;;;;1.63;1.20;;;26.20;59.70;;;;;;5027702;28;20080;-62
2023/08/12 12:03:06;;;;;;;2.83;1.30;;;26.20;59.60;;;;;;5028127;28;20053;-60
2023/08/12 12:05:34;;;;;;;2.03;1.30;;;26.20;59.40;;;;;;5028329;28;20049;-60
2023/08/12 12:08:08;;;;;;;1.65;1.17;;;26.30;59.20;;;;;;5027795;28;20049;-62
2023/08/12 12:10:38;;;;;;;2.42;1.30;;;26.30;58.90;;;;;;5028561;28;20049;-62
2023/08/12 12:13:09;;;;;;;2.95;1.13;;;26.30;59.10;;;;;;5027230;28;20060;-61
2023/08/12 12:15:44;;;;;;;2.42;1.08;;;26.30;58.90;;;;;;5029669;28;20916;-62
2023/08/12 12:18:13;;;;;;;2.03;1.25;;;26.40;58.60;;;;;;5027615;28;20061;-63
2023/08/12 12:20:54;;;;;;;1.30;1.20;;;26.40;58.40;;;;;;5026270;28;20398;-61
2023/08/12 12:23:23;;;;;;;1.90;1.27;;;26.40;58.20;;;;;;5025378;28;20064;-63
2023/08/12 12:25:50;;;;;;;3.80;1.40;;;26.50;58.50;;;;;;5026424;28;20447;-61
2023/08/12 12:28:17;;;;;;;3.17;1.73;;;26.50;58.40;;;;;;5025252;28;20057;-60
2023/08/12 12:30:44;;;;;;;2.22;1.48;;;26.50;58.30;;;;;;5025486;28;20061;-62
2023/08/12 12:33:12;;;;;;;2.08;1.33;;;26.50;58.50;;;;;;5026955;28;20056;-62
2023/08/12 12:35:39;;;;;;;3.25;1.40;;;26.60;58.50;;;;;;5026089;28;20044;-59
2023/08/12 12:38:06;;;;;;;3.15;1.25;;;26.60;58.50;;;;;;5026274;28;20064;-61
2023/08/12 12:40:35;;;;;;;2.30;1.27;;;26.60;58.30;;;;;;5025452;28;20049;-59
2023/08/12 12:43:02;;;;;;;2.28;1.30;;;26.70;58.30;;;;;;5025710;28;20060;-60
2023/08/12 12:45:30;;;;;;;2.13;1.20;;;26.70;57.90;;;;;;5025018;28;20418;-60
2023/08/12 12:47:57;;;;;;;2.58;1.40;;;26.70;57.80;;;;;;5026112;28;20049;-61
2023/08/12 12:50:24;;;;;;;3.50;1.90;;;26.80;57.60;;;;;;5025383;28;20416;-63
2023/08/12 12:52:52;;;;;;;2.35;1.40;;;26.80;57.60;;;;;;5026172;28;20057;-60
2023/08/12 12:55:20;;;;;;;3.13;1.40;;;26.80;57.50;;;;;;5026349;28;20063;-60
2023/08/12 12:57:48;;;;;;;1.90;1.30;;;26.80;57.40;;;;;;5024016;28;20053;-61